Delray Beach, FL

2:18 AM EDT on October 26, 2014 (GMT -0400)
Palm Beach International | Change Station
CLOSE
Current Station
Airport
Location: West Palm Beach,
Elevation: 20 ft
Nearby Weather Stations

Elev 20 ft 26.68 °N, 80.10 °W | Updated 25 minutes ago

Clear
Clear
68 °F
Feels Like 68 °F
N
7
Wind Variable Wind from NNW

Today
High -- | Low -- °F
--% Chance of Precip.
Yesterday
High -- | Low -- °F
Precip. -- in
7:25 AM 6:42 PM
Waxing Crescent, 6% visible
Pressure 29.91 in
Visibility 10.0 miles
Clouds Few 3000 ft
Dew Point 65 °F
Humidity 90%
Rainfall 0.00 in
Snow Depth Not available.
UV 0 out of 12
Pollen 4.50 out of 12
Air Quality Not available.
Flu Activity Not available.
METAR KPBI 260553Z 33006KT 10SM FEW030 20/18 A2991 RMK AO2 SLP129 T02000183 10233 20189 58008

More Conditions Fewer Conditions

Pressure 29.91 in
Visibility 10.0 miles
Clouds Few 3000 ft
Dew Point 65 °F
Humidity 90%
Rainfall 0.00 in
Snow Depth Not available.
UV 0 out of 12
Pollen 4.50 out of 12
Air Quality Not available.
Flu Activity Not available.
METAR KPBI 260553Z 33006KT 10SM FEW030 20/18 A2991 RMK AO2 SLP129 T02000183 10233 20189 58008

More Conditions Fewer Conditions

10-Day Weather Forecast

Almanac

Astronomy

Oct. 26, 2014 Rise Set
Actual Time 7:25 AM EDT 6:42 PM EDT
Civil Twilight 7:02 AM EDT 7:06 PM EDT
Nautical Twilight 6:34 AM EDT 7:33 PM EDT
Astronomical Twilight 6:07 AM EDT 8:00 PM EDT
Moon 9:52 AM EDT 9:02 PM EDT
Length of Visible Light 12h 03m
Length of Day
11h 16m
Tomorrow will be 1m 25s shorter.
Waxing Crescent, 6% of the Moon is Illuminated
Today
Waxing Crescent
Oct 30
First Quarter
Nov 6
Full
Nov 14
Last Quarter
Nov 22
New

Today's Extremes

State Highs State Lows

Community

WunderPhotos

Upload Photos

1,765,113 photos uploaded!

Nearby

Snow Depth

Station Depth Elevation
No new snow has been reported.

Earthquake Activity

City Distance Mag. Time & Date
No recent earthquake activity has been reported nearby.
Minimum magnitude displayed is 2.5.

Coastal Water Temperatures

Place Temperature
Lake Worth, FL 78.1 °F
Virginia Key, FL 80.1 °F

Nearby Weather Stations